createdAt,value
2018-12-25T00:00:02.993Z,2.56
2018-12-25T00:01:02.284Z,2.56
2018-12-25T00:02:02.590Z,2.56
2018-12-25T00:03:02.924Z,2.56
2018-12-25T00:04:03.259Z,2.62
2018-12-25T00:05:02.545Z,2.62
2018-12-25T00:06:02.841Z,2.62
2018-12-25T00:07:03.206Z,2.62
2018-12-25T00:08:02.576Z,2.68
2018-12-25T00:09:02.933Z,2.62
2018-12-25T00:10:03.228Z,2.62
2018-12-25T00:11:02.528Z,2.62
2018-12-25T00:12:02.839Z,2.62
2018-12-25T00:13:03.162Z,2.62
2018-12-25T00:14:02.492Z,2.62
2018-12-25T00:15:02.854Z,2.56
2018-12-25T00:16:03.154Z,2.56
2018-12-25T00:17:02.451Z,2.62
2018-12-25T00:18:02.774Z,2.62
2018-12-25T00:19:06.162Z,2.62
2018-12-25T00:20:02.851Z,2.62
2018-12-25T00:21:03.219Z,2.62
2018-12-25T00:22:02.561Z,2.62
2018-12-25T00:23:02.933Z,2.62
2018-12-25T00:24:03.236Z,2.62
2018-12-25T00:25:02.518Z,2.62
2018-12-25T00:26:02.897Z,2.62
2018-12-25T00:27:03.217Z,2.68
2018-12-25T00:28:02.531Z,2.62
2018-12-25T00:29:02.841Z,2.62
2018-12-25T00:30:03.215Z,2.62
2018-12-25T00:31:02.533Z,2.62
2018-12-25T00:32:02.857Z,2.62
2018-12-25T00:33:03.212Z,2.68
2018-12-25T00:34:02.528Z,2.68
2018-12-25T00:35:02.837Z,2.68
2018-12-25T00:36:03.091Z,2.68
2018-12-25T00:37:02.349Z,2.68
2018-12-25T00:38:02.737Z,2.62
2018-12-25T00:39:03.086Z,2.68
2018-12-25T00:40:02.360Z,2.68
2018-12-25T00:41:02.675Z,2.68
2018-12-25T00:42:02.999Z,2.68
2018-12-25T00:43:02.300Z,2.68
2018-12-25T00:44:02.609Z,2.68
2018-12-25T00:45:03.008Z,2.68
2018-12-25T00:46:02.268Z,2.68
2018-12-25T00:47:02.614Z,2.68
2018-12-25T00:48:02.930Z,2.68
2018-12-25T00:49:03.253Z,2.68
2018-12-25T00:50:02.581Z,2.68
2018-12-25T00:51:02.916Z,2.68
2018-12-25T00:52:03.232Z,2.68
2018-12-25T00:53:02.528Z,2.75
2018-12-25T00:54:02.943Z,2.75
2018-12-25T00:55:03.333Z,2.75
2018-12-25T00:56:02.599Z,2.75
2018-12-25T00:57:02.912Z,2.75
2018-12-25T00:58:03.156Z,2.75
2018-12-25T00:59:02.434Z,2.75
2018-12-25T01:00:02.767Z,2.75
2018-12-25T01:01:03.134Z,2.75
2018-12-25T01:02:02.442Z,2.75
2018-12-25T01:03:02.781Z,2.75
2018-12-25T01:04:03.075Z,2.75
2018-12-25T01:05:02.356Z,2.75
2018-12-25T01:06:02.687Z,2.75
2018-12-25T01:07:03.089Z,2.75
2018-12-25T01:08:02.403Z,2.75
2018-12-25T01:09:02.682Z,2.75
2018-12-25T01:10:03.050Z,2.81
2018-12-25T01:11:02.354Z,2.81
2018-12-25T01:12:02.731Z,2.81
2018-12-25T01:13:03.053Z,2.81
2018-12-25T01:14:02.355Z,2.81
2018-12-25T01:15:02.568Z,2.75
2018-12-25T01:16:03.796Z,2.81
2018-12-25T01:17:03.064Z,2.81
2018-12-25T01:18:02.369Z,2.81
2018-12-25T01:19:02.731Z,2.81
2018-12-25T01:20:03.001Z,2.81
2018-12-25T01:21:02.280Z,2.81
2018-12-25T01:22:02.599Z,2.81
2018-12-25T01:23:02.921Z,2.81
2018-12-25T01:24:03.308Z,2.81
2018-12-25T01:25:02.658Z,2.81
2018-12-25T01:26:02.977Z,2.75
2018-12-25T01:27:02.289Z,2.75
2018-12-25T01:28:02.612Z,2.75
2018-12-25T01:29:02.927Z,2.75
2018-12-25T01:30:03.291Z,2.75
2018-12-25T01:31:02.596Z,2.75
2018-12-25T01:32:02.938Z,2.75
2018-12-25T01:33:03.232Z,2.75
2018-12-25T01:34:02.523Z,2.75
2018-12-25T01:35:02.864Z,2.75
2018-12-25T01:36:03.227Z,2.81
2018-12-25T01:37:02.526Z,2.81
2018-12-25T01:38:02.839Z,2.81
2018-12-25T01:39:03.158Z,2.81
2018-12-25T01:40:02.456Z,2.81
2018-12-25T01:41:02.770Z,2.81
2018-12-25T01:42:03.169Z,2.81
2018-12-25T01:43:02.437Z,2.81
2018-12-25T01:44:02.862Z,2.87
2018-12-25T01:45:03.177Z,2.87
2018-12-25T01:46:02.545Z,2.87
2018-12-25T01:47:03.226Z,2.87
2018-12-25T01:48:02.553Z,2.87
2018-12-25T01:49:02.842Z,2.87
2018-12-25T01:50:03.283Z,2.87
2018-12-25T01:51:02.607Z,2.93
2018-12-25T01:52:03.006Z,2.87
2018-12-25T01:53:02.285Z,2.93
2018-12-25T01:54:02.618Z,2.93
2018-12-25T01:55:02.927Z,2.93
2018-12-25T01:56:03.244Z,2.93
2018-12-25T01:57:02.580Z,2.93
2018-12-25T01:58:02.892Z,2.93
2018-12-25T01:59:03.166Z,2.93
2018-12-25T02:00:02.436Z,2.93
2018-12-25T02:01:02.674Z,2.93
2018-12-25T02:02:03.979Z,3
2018-12-25T02:03:02.330Z,2.93
2018-12-25T02:04:02.639Z,2.93
2018-12-25T02:05:02.916Z,3
2018-12-25T02:06:03.238Z,2.93
2018-12-25T02:07:02.514Z,3
2018-12-25T02:08:02.988Z,3
2018-12-25T02:09:02.382Z,3
2018-12-25T02:10:02.731Z,3
2018-12-25T02:11:03.251Z,3
2018-12-25T02:12:02.736Z,3
2018-12-25T02:13:03.216Z,2.93
2018-12-25T02:14:02.780Z,3
2018-12-25T02:15:03.107Z,2.93
2018-12-25T02:16:02.353Z,3
2018-12-25T02:17:02.678Z,3
2018-12-25T02:18:03.002Z,3
2018-12-25T02:19:02.366Z,3
2018-12-25T02:20:03.558Z,3
2018-12-25T02:21:02.849Z,3
2018-12-25T02:22:03.169Z,3
2018-12-25T02:23:02.455Z,2.93
2018-12-25T02:24:03.314Z,3
2018-12-25T02:25:02.708Z,3
2018-12-25T02:26:03.005Z,2.93
2018-12-25T02:27:02.365Z,2.93
2018-12-25T02:28:02.675Z,2.93
2018-12-25T02:29:02.974Z,2.93
2018-12-25T02:30:02.285Z,2.93
2018-12-25T02:31:02.674Z,2.93
2018-12-25T02:32:02.936Z,2.93
2018-12-25T02:33:03.249Z,2.93
2018-12-25T02:34:02.535Z,2.93
2018-12-25T02:35:02.918Z,2.93
2018-12-25T02:36:03.233Z,2.93
2018-12-25T02:37:02.598Z,2.93
2018-12-25T02:38:02.934Z,2.87
2018-12-25T02:39:03.269Z,2.87
2018-12-25T02:40:02.647Z,2.87
2018-12-25T02:41:03.038Z,2.87
2018-12-25T02:42:02.411Z,2.87
2018-12-25T02:43:02.683Z,2.87
2018-12-25T02:44:03.004Z,2.87
2018-12-25T02:45:02.325Z,2.87
2018-12-25T02:46:02.705Z,2.87
2018-12-25T02:47:03.013Z,2.87
2018-12-25T02:48:02.292Z,2.87
2018-12-25T02:49:02.597Z,2.87
2018-12-25T02:50:02.931Z,2.87
2018-12-25T02:51:03.245Z,2.93
2018-12-25T02:52:02.609Z,2.93
2018-12-25T02:53:02.927Z,2.87
2018-12-25T02:54:03.251Z,2.87
2018-12-25T02:55:02.511Z,2.87
2018-12-25T02:56:02.777Z,2.93
2018-12-25T02:57:03.135Z,2.93
2018-12-25T02:58:02.499Z,2.93
2018-12-25T02:59:02.772Z,2.93
2018-12-25T03:00:03.079Z,2.93
2018-12-25T03:01:02.360Z,2.93
2018-12-25T03:02:02.683Z,2.93
2018-12-25T03:03:03.009Z,2.93
2018-12-25T03:04:02.331Z,2.93
2018-12-25T03:05:02.599Z,2.93
2018-12-25T03:06:02.937Z,2.93
2018-12-25T03:07:03.258Z,2.93
2018-12-25T03:08:02.522Z,2.93
2018-12-25T03:09:02.896Z,2.93
2018-12-25T03:10:03.156Z,2.93
2018-12-25T03:11:02.438Z,2.93
2018-12-25T03:12:02.808Z,2.93
2018-12-25T03:13:03.080Z,2.93
2018-12-25T03:14:02.375Z,2.93
2018-12-25T03:15:02.733Z,2.93
2018-12-25T03:16:03.012Z,2.93
2018-12-25T03:17:02.274Z,2.93
2018-12-25T03:18:02.591Z,3
2018-12-25T03:19:02.839Z,3
2018-12-25T03:20:03.225Z,2.93
2018-12-25T03:21:02.497Z,3
2018-12-25T03:22:02.767Z,3
2018-12-25T03:23:03.089Z,3
2018-12-25T03:24:02.351Z,3
2018-12-25T03:25:02.686Z,2.93
2018-12-25T03:26:03.051Z,2.93
2018-12-25T03:27:02.456Z,3
2018-12-25T03:28:02.835Z,3
2018-12-25T03:29:03.086Z,3
2018-12-25T03:30:02.373Z,3
2018-12-25T03:31:02.683Z,3
2018-12-25T03:32:03.054Z,3
2018-12-25T03:33:02.370Z,3
2018-12-25T03:34:02.675Z,3
2018-12-25T03:35:02.921Z,3
2018-12-25T03:36:03.247Z,3
2018-12-25T03:37:02.516Z,3
2018-12-25T03:38:02.817Z,3
2018-12-25T03:39:03.074Z,3
2018-12-25T03:40:02.371Z,3
2018-12-25T03:41:02.678Z,3
2018-12-25T03:42:03.049Z,3
2018-12-25T03:43:02.411Z,3
2018-12-25T03:44:02.686Z,3.06
2018-12-25T03:45:02.994Z,3
2018-12-25T03:46:02.288Z,3.06
2018-12-25T03:47:02.603Z,3
2018-12-25T03:48:02.953Z,3
2018-12-25T03:49:03.250Z,3
2018-12-25T03:50:10.295Z,3
2018-12-25T03:51:03.074Z,3.06
2018-12-25T03:52:02.441Z,3
2018-12-25T03:53:02.764Z,3
2018-12-25T03:54:03.134Z,3
2018-12-25T03:55:02.435Z,3
2018-12-25T03:56:02.777Z,3
2018-12-25T03:57:03.230Z,3
2018-12-25T03:58:02.598Z,3
2018-12-25T03:59:02.885Z,3
2018-12-25T04:00:03.256Z,3
2018-12-25T04:01:02.515Z,3
2018-12-25T04:02:02.839Z,3.06
2018-12-25T04:03:03.157Z,3
2018-12-25T04:04:02.453Z,3
2018-12-25T04:05:02.834Z,3
2018-12-25T04:06:03.234Z,3
2018-12-25T04:07:02.522Z,3
2018-12-25T04:08:02.850Z,3
2018-12-25T04:09:03.177Z,3
2018-12-25T04:10:02.442Z,3
2018-12-25T04:11:02.774Z,3
2018-12-25T04:12:03.393Z,3
2018-12-25T04:13:02.783Z,3
2018-12-25T04:14:03.094Z,2.93
2018-12-25T04:15:02.352Z,3
2018-12-25T04:16:02.594Z,2.93
2018-12-25T04:17:02.982Z,2.93
2018-12-25T04:18:02.343Z,2.93
2018-12-25T04:19:02.621Z,2.93
2018-12-25T04:20:02.922Z,3
2018-12-25T04:21:03.230Z,3
2018-12-25T04:22:02.525Z,3
2018-12-25T04:23:02.889Z,3
2018-12-25T04:24:03.161Z,2.93
2018-12-25T04:25:02.431Z,2.93
2018-12-25T04:26:02.702Z,3
2018-12-25T04:27:03.020Z,2.93
2018-12-25T04:28:02.289Z,3
2018-12-25T04:29:02.695Z,2.93
2018-12-25T04:30:02.997Z,2.93
2018-12-25T04:31:02.291Z,2.93
2018-12-25T04:32:02.609Z,2.93
2018-12-25T04:33:02.919Z,2.93
2018-12-25T04:34:02.341Z,2.93
2018-12-25T04:35:02.709Z,2.93
2018-12-25T04:36:02.997Z,2.93
2018-12-25T04:37:02.280Z,2.87
2018-12-25T04:38:02.609Z,2.93
2018-12-25T04:39:02.895Z,2.87
2018-12-25T04:40:03.283Z,2.87
2018-12-25T04:41:02.601Z,2.87
2018-12-25T04:42:02.906Z,2.87
2018-12-25T04:43:03.238Z,2.87
2018-12-25T04:44:02.561Z,2.87
2018-12-25T04:45:02.843Z,2.81
2018-12-25T04:46:03.248Z,2.87
2018-12-25T04:47:02.526Z,2.81
2018-12-25T04:48:02.850Z,2.81
2018-12-25T04:49:03.142Z,2.81
2018-12-25T04:50:02.437Z,2.81
2018-12-25T04:51:02.771Z,2.81
2018-12-25T04:52:03.169Z,2.87
2018-12-25T04:53:02.435Z,2.87
2018-12-25T04:54:02.766Z,2.81
2018-12-25T04:55:03.073Z,2.81
2018-12-25T04:56:02.447Z,2.87
2018-12-25T04:57:02.768Z,2.81
2018-12-25T04:58:03.127Z,2.81
2018-12-25T04:59:02.437Z,2.87
2018-12-25T05:00:02.876Z,2.87
2018-12-25T05:01:03.160Z,2.87
2018-12-25T05:02:02.458Z,2.87
2018-12-25T05:03:02.757Z,2.81
2018-12-25T05:04:03.131Z,2.81
2018-12-25T05:05:02.433Z,2.81
2018-12-25T05:06:02.756Z,2.87
2018-12-25T05:07:03.004Z,2.81
2018-12-25T05:08:02.283Z,2.87
2018-12-25T05:09:02.596Z,2.87
2018-12-25T05:10:02.965Z,2.81
2018-12-25T05:11:02.283Z,2.81
2018-12-25T05:12:02.601Z,2.81
2018-12-25T05:13:02.915Z,2.81
2018-12-25T05:14:03.267Z,2.81
2018-12-25T05:15:02.569Z,2.81
2018-12-25T05:16:02.896Z,2.81
2018-12-25T05:17:03.174Z,2.81
2018-12-25T05:18:02.430Z,2.81
2018-12-25T05:19:02.671Z,2.81
2018-12-25T05:20:03.000Z,2.75
2018-12-25T05:21:02.288Z,2.81
2018-12-25T05:22:02.680Z,2.81
2018-12-25T05:23:02.994Z,2.75
2018-12-25T05:24:02.292Z,2.75
2018-12-25T05:25:02.585Z,2.75
2018-12-25T05:26:02.991Z,2.75
2018-12-25T05:27:02.278Z,2.75
2018-12-25T05:28:02.661Z,2.75
2018-12-25T05:29:02.925Z,2.75
2018-12-25T05:30:03.297Z,2.75
2018-12-25T05:31:02.596Z,2.81
2018-12-25T05:32:02.836Z,2.75
2018-12-25T05:33:03.174Z,2.75
2018-12-25T05:34:02.491Z,2.75
2018-12-25T05:35:02.750Z,2.75
2018-12-25T05:36:03.082Z,2.75
2018-12-25T05:37:02.376Z,2.75
2018-12-25T05:38:02.675Z,2.75
2018-12-25T05:39:03.020Z,2.75
2018-12-25T05:40:02.290Z,2.75
2018-12-25T05:41:02.609Z,2.75
2018-12-25T05:42:02.915Z,2.75
2018-12-25T05:43:03.231Z,2.75
2018-12-25T05:44:02.534Z,2.81
2018-12-25T05:45:02.892Z,2.81
2018-12-25T05:46:03.227Z,2.81
2018-12-25T05:47:02.517Z,2.81
2018-12-25T05:48:02.838Z,2.81
2018-12-25T05:49:03.155Z,2.81
2018-12-25T05:50:02.436Z,2.81
2018-12-25T05:51:02.808Z,2.81
2018-12-25T05:52:03.083Z,2.81
2018-12-25T05:53:02.400Z,2.81
2018-12-25T05:54:02.677Z,2.81
2018-12-25T05:55:02.993Z,2.81
2018-12-25T05:56:02.348Z,2.87
2018-12-25T05:57:02.735Z,2.81
2018-12-25T05:58:03.007Z,2.87
2018-12-25T05:59:02.291Z,2.87
2018-12-25T06:00:02.566Z,2.87
2018-12-25T06:01:02.891Z,2.81
2018-12-25T06:02:03.212Z,2.81
2018-12-25T06:03:02.540Z,2.87
2018-12-25T06:04:03.088Z,2.87
2018-12-25T06:05:02.375Z,2.87
2018-12-25T06:06:02.670Z,2.87
2018-12-25T06:07:02.924Z,2.87
2018-12-25T06:08:03.295Z,2.87
2018-12-25T06:09:02.699Z,2.81
2018-12-25T06:10:03.007Z,2.81
2018-12-25T06:11:02.285Z,2.81
2018-12-25T06:12:02.606Z,2.81
2018-12-25T06:13:02.975Z,2.81
2018-12-25T06:14:02.402Z,2.81
2018-12-25T06:15:02.687Z,2.81
2018-12-25T06:16:03.135Z,2.81
2018-12-25T06:17:03.330Z,2.81
2018-12-25T06:18:02.592Z,2.81
2018-12-25T06:19:02.895Z,2.75
2018-12-25T06:20:03.157Z,2.81
2018-12-25T06:21:02.456Z,2.81
2018-12-25T06:22:02.763Z,2.81
2018-12-25T06:23:03.082Z,2.81
2018-12-25T06:24:02.404Z,2.81
2018-12-25T06:25:02.755Z,2.81
2018-12-25T06:26:03.097Z,2.81
2018-12-25T06:27:02.357Z,2.81
2018-12-25T06:28:02.684Z,2.81
2018-12-25T06:29:03.023Z,2.81
2018-12-25T06:30:02.342Z,2.81
2018-12-25T06:31:02.603Z,2.81
2018-12-25T06:32:03.041Z,2.81
2018-12-25T06:33:02.351Z,2.81
2018-12-25T06:34:02.592Z,2.81
2018-12-25T06:35:02.901Z,2.81
2018-12-25T06:36:03.262Z,2.81
2018-12-25T06:37:02.529Z,2.81
2018-12-25T06:38:02.848Z,2.87
2018-12-25T06:39:03.161Z,2.81
2018-12-25T06:40:02.435Z,2.81
2018-12-25T06:41:02.768Z,2.81
2018-12-25T06:42:03.133Z,2.81
2018-12-25T06:43:02.439Z,2.81
2018-12-25T06:44:02.755Z,2.81
2018-12-25T06:45:03.117Z,2.87
2018-12-25T06:46:02.438Z,2.81
2018-12-25T06:47:02.765Z,2.81
2018-12-25T06:48:03.206Z,2.81
2018-12-25T06:49:02.512Z,2.81
2018-12-25T06:50:02.847Z,2.81
2018-12-25T06:51:03.875Z,2.81
2018-12-25T06:52:02.523Z,2.81
2018-12-25T06:53:02.846Z,2.81
2018-12-25T06:54:03.254Z,2.81
2018-12-25T06:55:02.519Z,2.81
2018-12-25T06:56:02.842Z,2.81
2018-12-25T06:57:03.161Z,2.81
2018-12-25T06:58:02.437Z,2.81
2018-12-25T06:59:02.846Z,2.81
2018-12-25T07:00:03.165Z,2.81
2018-12-25T07:01:02.444Z,2.81
2018-12-25T07:02:03.634Z,2.81
2018-12-25T07:03:02.922Z,2.81
2018-12-25T07:04:03.320Z,2.81
2018-12-25T07:05:02.647Z,2.81
2018-12-25T07:06:02.919Z,2.81
2018-12-25T07:07:03.259Z,2.81
2018-12-25T07:08:02.514Z,2.81
2018-12-25T07:09:02.838Z,2.81
2018-12-25T07:10:03.211Z,2.81
2018-12-25T07:11:02.574Z,2.81
2018-12-25T07:12:02.838Z,2.81
2018-12-25T07:13:03.151Z,2.81
2018-12-25T07:14:02.446Z,2.81
2018-12-25T07:15:02.751Z,2.81
2018-12-25T07:16:03.050Z,2.81
2018-12-25T07:17:02.361Z,2.81
2018-12-25T07:18:02.668Z,2.81
2018-12-25T07:19:03.041Z,2.81
2018-12-25T07:20:02.407Z,2.81
2018-12-25T07:21:02.728Z,2.81
2018-12-25T07:22:03.015Z,2.81
2018-12-25T07:23:02.284Z,2.81
2018-12-25T07:24:02.596Z,2.81
2018-12-25T07:25:02.914Z,2.87
2018-12-25T07:26:03.215Z,2.87
2018-12-25T07:27:02.535Z,2.87
2018-12-25T07:28:02.843Z,2.87
2018-12-25T07:29:03.153Z,2.87
2018-12-25T07:30:02.453Z,2.87
2018-12-25T07:31:02.752Z,2.87
2018-12-25T07:32:03.018Z,2.87
2018-12-25T07:33:02.368Z,2.87
2018-12-25T07:34:02.698Z,2.87
2018-12-25T07:35:03.049Z,2.87
2018-12-25T07:36:02.376Z,2.93
2018-12-25T07:37:02.727Z,2.93
2018-12-25T07:38:02.990Z,2.93
2018-12-25T07:39:02.282Z,2.93
2018-12-25T07:40:02.595Z,2.93
2018-12-25T07:41:02.927Z,2.93
2018-12-25T07:42:03.285Z,2.93
2018-12-25T07:43:02.594Z,3
2018-12-25T07:44:02.855Z,3
2018-12-25T07:45:03.157Z,3
2018-12-25T07:46:02.507Z,3
2018-12-25T07:47:03.690Z,3
2018-12-25T07:48:02.998Z,3
2018-12-25T07:49:02.272Z,3
2018-12-25T07:50:02.601Z,3
2018-12-25T07:51:02.907Z,3
2018-12-25T07:52:03.147Z,3.06
2018-12-25T07:53:02.520Z,3.06
2018-12-25T07:54:02.830Z,3.06
2018-12-25T07:55:03.962Z,3.06
2018-12-25T07:56:02.273Z,3.06
2018-12-25T07:57:02.510Z,3.06
2018-12-25T07:58:02.909Z,3.12
2018-12-25T07:59:03.252Z,3.12
2018-12-25T08:00:02.529Z,3.06
2018-12-25T08:01:02.838Z,3.12
2018-12-25T08:02:03.166Z,3.12
2018-12-25T08:03:02.437Z,3.12
2018-12-25T08:04:02.765Z,3.12
2018-12-25T08:05:03.132Z,3.12
2018-12-25T08:06:02.461Z,3.18
2018-12-25T08:07:02.754Z,3.18
2018-12-25T08:08:03.087Z,3.18
2018-12-25T08:09:02.354Z,3.18
2018-12-25T08:10:02.727Z,3.18
2018-12-25T08:11:03.010Z,3.18
2018-12-25T08:12:02.273Z,3.25
2018-12-25T08:13:02.520Z,3.18
2018-12-25T08:14:02.850Z,3.25
2018-12-25T08:15:03.212Z,3.25
2018-12-25T08:16:02.523Z,3.25
2018-12-25T08:17:02.830Z,3.25
2018-12-25T08:18:03.152Z,3.25
2018-12-25T08:19:02.448Z,3.25
2018-12-25T08:20:02.856Z,3.31
2018-12-25T08:21:03.213Z,3.31
2018-12-25T08:22:02.513Z,3.31
2018-12-25T08:23:02.959Z,3.31
2018-12-25T08:24:02.275Z,3.31
2018-12-25T08:25:02.592Z,3.31
2018-12-25T08:26:02.840Z,3.31
2018-12-25T08:27:03.207Z,3.31
2018-12-25T08:28:02.515Z,3.37
2018-12-25T08:29:02.842Z,3.37
2018-12-25T08:30:03.200Z,3.37
2018-12-25T08:31:02.516Z,3.37
2018-12-25T08:32:02.852Z,3.31
2018-12-25T08:33:03.205Z,3.37
2018-12-25T08:34:02.512Z,3.31
2018-12-25T08:35:02.839Z,3.31
2018-12-25T08:36:03.213Z,3.37
2018-12-25T08:37:02.512Z,3.37
2018-12-25T08:38:02.854Z,3.37
2018-12-25T08:39:03.248Z,3.37
2018-12-25T08:40:02.516Z,3.43
2018-12-25T08:41:02.841Z,3.43
2018-12-25T08:42:03.154Z,3.43
2018-12-25T08:43:02.436Z,3.43
2018-12-25T08:44:02.813Z,3.43
2018-12-25T08:45:03.131Z,3.43
2018-12-25T08:46:02.452Z,3.5
2018-12-25T08:47:02.872Z,3.43
2018-12-25T08:48:03.157Z,3.5
2018-12-25T08:49:02.428Z,3.5
2018-12-25T08:50:02.731Z,3.5
2018-12-25T08:51:03.514Z,3.5
2018-12-25T08:52:02.839Z,3.5
2018-12-25T08:53:03.172Z,3.5
2018-12-25T08:54:02.436Z,3.56
2018-12-25T08:55:02.768Z,3.56
2018-12-25T08:56:03.164Z,3.56
2018-12-25T08:57:02.431Z,3.56
2018-12-25T08:58:02.771Z,3.56
2018-12-25T08:59:03.088Z,3.56
2018-12-25T09:00:02.357Z,3.56
2018-12-25T09:01:02.699Z,3.56
2018-12-25T09:02:03.052Z,3.62
2018-12-25T09:03:02.346Z,3.62
2018-12-25T09:04:02.616Z,3.62
2018-12-25T09:05:03.787Z,3.62
2018-12-25T09:06:03.146Z,3.62
2018-12-25T09:07:02.720Z,3.62
2018-12-25T09:08:03.050Z,3.62
2018-12-25T09:09:02.352Z,3.68
2018-12-25T09:10:02.611Z,3.68
2018-12-25T09:11:02.914Z,3.62
2018-12-25T09:12:03.258Z,3.68
2018-12-25T09:13:04.706Z,3.68
2018-12-25T09:14:03.249Z,3.68
2018-12-25T09:15:02.516Z,3.68
2018-12-25T09:16:02.846Z,3.68
2018-12-25T09:17:03.161Z,3.68
2018-12-25T09:18:02.440Z,3.68
2018-12-25T09:19:02.809Z,3.68
2018-12-25T09:20:03.170Z,3.75
2018-12-25T09:21:02.428Z,3.68
2018-12-25T09:22:02.776Z,3.68
2018-12-25T09:23:03.088Z,3.68
2018-12-25T09:24:02.388Z,3.68
2018-12-25T09:25:02.681Z,3.75
2018-12-25T09:26:03.061Z,3.75
2018-12-25T09:27:02.344Z,3.75
2018-12-25T09:28:03.466Z,3.81
2018-12-25T09:29:02.756Z,3.75
2018-12-25T09:30:03.058Z,3.75
2018-12-25T09:31:02.600Z,3.81
2018-12-25T09:32:02.974Z,3.81
2018-12-25T09:33:02.289Z,3.81
2018-12-25T09:34:02.618Z,3.81
2018-12-25T09:35:02.926Z,3.81
2018-12-25T09:36:03.269Z,3.81
2018-12-25T09:37:02.654Z,3.81
2018-12-25T09:38:02.975Z,3.81
2018-12-25T09:39:02.275Z,3.81
2018-12-25T09:40:02.516Z,3.81
2018-12-25T09:41:02.762Z,3.81
2018-12-25T09:42:03.076Z,3.81
2018-12-25T09:43:02.364Z,3.87
2018-12-25T09:44:02.767Z,3.87
2018-12-25T09:45:03.046Z,3.87
2018-12-25T09:46:02.359Z,3.87
2018-12-25T09:47:02.680Z,3.87
2018-12-25T09:48:03.895Z,3.87
2018-12-25T09:49:03.218Z,3.87
2018-12-25T09:50:02.537Z,3.87
2018-12-25T09:51:02.836Z,3.93
2018-12-25T09:52:03.209Z,3.93
2018-12-25T09:53:02.529Z,3.93
2018-12-25T09:54:03.784Z,3.93
2018-12-25T09:55:03.085Z,3.93
2018-12-25T09:56:02.354Z,3.93
2018-12-25T09:57:02.655Z,3.93
2018-12-25T09:58:02.927Z,4
2018-12-25T09:59:03.290Z,4
2018-12-25T10:00:03.532Z,4
2018-12-25T10:01:02.857Z,4
2018-12-25T10:02:03.151Z,4
2018-12-25T10:03:02.436Z,4.06
2018-12-25T10:04:02.763Z,4.06
2018-12-25T10:05:03.085Z,4
2018-12-25T10:06:02.407Z,4
2018-12-25T10:07:02.680Z,4.06
2018-12-25T10:08:03.057Z,4.06
2018-12-25T10:09:02.374Z,4
2018-12-25T10:10:02.694Z,4
2018-12-25T10:11:03.015Z,4
2018-12-25T10:12:02.401Z,4
2018-12-25T10:13:02.676Z,4.06
2018-12-25T10:14:03.002Z,4.06
2018-12-25T10:15:02.337Z,4.06
2018-12-25T10:16:02.592Z,4.06
2018-12-25T10:17:03.007Z,4.06
2018-12-25T10:18:02.285Z,4.06
2018-12-25T10:19:02.717Z,4.06
2018-12-25T10:20:03.001Z,4.06
2018-12-25T10:21:02.270Z,4.06
2018-12-25T10:22:02.851Z,4.12
2018-12-25T10:23:02.490Z,4.06
2018-12-25T10:24:02.817Z,4.06
2018-12-25T10:25:03.071Z,4.06
2018-12-25T10:26:02.362Z,4.06
2018-12-25T10:27:02.671Z,4.06
2018-12-25T10:28:03.033Z,4.06
2018-12-25T10:29:02.377Z,4
2018-12-25T10:30:02.697Z,4
2018-12-25T10:31:03.043Z,4
2018-12-25T10:32:02.367Z,4
2018-12-25T10:33:02.734Z,4
2018-12-25T10:34:03.110Z,4
2018-12-25T10:35:02.363Z,4
2018-12-25T10:36:02.690Z,4
2018-12-25T10:37:03.002Z,4
2018-12-25T10:38:02.286Z,4
2018-12-25T10:39:02.653Z,3.93
2018-12-25T10:40:02.976Z,3.93
2018-12-25T10:41:02.269Z,3.93
2018-12-25T10:42:02.599Z,3.93
2018-12-25T10:43:02.915Z,3.93
2018-12-25T10:44:03.243Z,4
2018-12-25T10:45:02.546Z,4
2018-12-25T10:46:02.941Z,4.06
2018-12-25T10:47:03.256Z,4.18
2018-12-25T10:48:02.527Z,4.25
2018-12-25T10:49:02.836Z,4.31
2018-12-25T10:50:03.174Z,4.25
2018-12-25T10:51:02.439Z,4.31
2018-12-25T10:52:11.290Z,4.37
2018-12-25T10:53:02.927Z,4.37
2018-12-25T10:54:03.353Z,4.43
2018-12-25T10:55:02.691Z,4.43
2018-12-25T10:56:03.014Z,4.43
2018-12-25T10:57:02.307Z,4.43
2018-12-25T10:58:04.503Z,4.43
2018-12-25T10:59:02.920Z,4.5
2018-12-25T11:00:03.253Z,4.56
2018-12-25T11:01:02.518Z,4.56
2018-12-25T11:02:02.838Z,4.62
2018-12-25T11:03:03.251Z,4.62
2018-12-25T11:04:02.518Z,4.62
2018-12-25T11:05:02.841Z,4.62
2018-12-25T11:06:03.165Z,4.68
2018-12-25T11:07:02.460Z,4.68
2018-12-25T11:08:02.770Z,4.68
2018-12-25T11:09:03.184Z,4.68
2018-12-25T11:10:02.686Z,4.75
2018-12-25T11:11:03.003Z,4.75
2018-12-25T11:12:02.284Z,4.75
2018-12-25T11:13:02.659Z,4.75
2018-12-25T11:14:03.018Z,4.68
2018-12-25T11:15:02.278Z,4.68
2018-12-25T11:16:02.610Z,4.68
2018-12-25T11:17:02.928Z,4.75
2018-12-25T11:18:03.242Z,4.68
2018-12-25T11:19:02.533Z,4.68
2018-12-25T11:20:11.216Z,4.68
2018-12-25T11:21:02.762Z,4.68
2018-12-25T11:22:03.097Z,4.68
2018-12-25T11:23:02.352Z,4.68
2018-12-25T11:24:02.567Z,4.68
2018-12-25T11:25:02.933Z,4.68
2018-12-25T11:26:03.302Z,4.68
2018-12-25T11:27:02.597Z,4.68
2018-12-25T11:28:02.912Z,4.75
2018-12-25T11:29:03.230Z,4.75
2018-12-25T11:30:02.530Z,4.75
2018-12-25T11:31:02.913Z,4.75
2018-12-25T11:32:03.358Z,4.68
2018-12-25T11:33:02.678Z,4.75
2018-12-25T11:34:03.001Z,4.75
2018-12-25T11:35:02.281Z,4.75
2018-12-25T11:36:02.600Z,4.75
2018-12-25T11:37:02.925Z,4.75
2018-12-25T11:38:03.304Z,4.75
2018-12-25T11:39:02.595Z,4.75
2018-12-25T11:40:02.980Z,4.75
2018-12-25T11:41:02.337Z,4.75
2018-12-25T11:42:02.621Z,4.81
2018-12-25T11:43:02.930Z,4.81
2018-12-25T11:44:03.301Z,4.81
2018-12-25T11:45:02.601Z,4.81
2018-12-25T11:46:02.907Z,4.81
2018-12-25T11:47:03.243Z,4.68
2018-12-25T11:48:02.520Z,4.75
2018-12-25T11:49:02.897Z,4.75
2018-12-25T11:50:03.179Z,4.75
2018-12-25T11:51:02.438Z,4.75
2018-12-25T11:52:02.747Z,4.75
2018-12-25T11:53:03.734Z,4.75
2018-12-25T11:54:03.090Z,4.62
2018-12-25T11:55:02.473Z,4.62
2018-12-25T11:56:02.777Z,4.56
2018-12-25T11:57:03.147Z,4.56
2018-12-25T11:58:02.431Z,4.68
2018-12-25T11:59:02.683Z,4.75
2018-12-25T12:00:03.132Z,4.87
2018-12-25T12:01:02.437Z,4.93
2018-12-25T12:02:02.771Z,5
2018-12-25T12:03:03.079Z,4.93
2018-12-25T12:04:02.353Z,4.87
2018-12-25T12:05:02.683Z,4.87
2018-12-25T12:06:03.048Z,4.87
2018-12-25T12:07:02.354Z,4.81
2018-12-25T12:08:02.680Z,4.81
2018-12-25T12:09:03.016Z,4.81
2018-12-25T12:10:02.287Z,4.75
2018-12-25T12:11:02.694Z,4.68
2018-12-25T12:12:03.051Z,4.68
2018-12-25T12:13:02.361Z,4.75
2018-12-25T12:14:02.682Z,4.68
2018-12-25T12:15:02.999Z,4.68
2018-12-25T12:16:02.293Z,4.68
2018-12-25T12:17:02.655Z,4.68
2018-12-25T12:18:04.922Z,4.75
2018-12-25T12:19:03.257Z,4.75
2018-12-25T12:20:02.519Z,4.75
2018-12-25T12:21:02.844Z,4.68
2018-12-25T12:22:03.177Z,4.75
2018-12-25T12:23:02.442Z,4.75
2018-12-25T12:24:02.959Z,4.75
2018-12-25T12:25:02.273Z,4.75
2018-12-25T12:26:02.524Z,4.75
2018-12-25T12:27:02.889Z,4.75
2018-12-25T12:28:03.176Z,4.75
2018-12-25T12:29:02.437Z,4.75
2018-12-25T12:30:02.809Z,4.75
2018-12-25T12:31:03.081Z,4.75
2018-12-25T12:32:02.356Z,4.75
2018-12-25T12:33:02.677Z,4.75
2018-12-25T12:34:02.994Z,4.75
2018-12-25T12:35:02.311Z,4.68
2018-12-25T12:36:02.663Z,4.68
2018-12-25T12:37:02.977Z,4.75
2018-12-25T12:38:02.270Z,4.68
2018-12-25T12:39:02.594Z,4.68
2018-12-25T12:40:02.922Z,4.68
2018-12-25T12:41:03.434Z,4.68
2018-12-25T12:42:02.871Z,4.68
2018-12-25T12:43:03.160Z,4.68
2018-12-25T12:44:02.438Z,4.62
2018-12-25T12:45:02.752Z,4.62
2018-12-25T12:46:03.931Z,4.68
2018-12-25T12:47:03.252Z,4.68
2018-12-25T12:48:02.522Z,4.68
2018-12-25T12:49:02.846Z,4.68
2018-12-25T12:50:03.155Z,4.68
2018-12-25T12:51:02.424Z,4.75
2018-12-25T12:52:03.599Z,4.75
2018-12-25T12:53:02.935Z,4.75
2018-12-25T12:54:03.266Z,4.75
2018-12-25T12:55:02.520Z,4.68
2018-12-25T12:56:02.837Z,4.68
2018-12-25T12:57:03.217Z,4.75
2018-12-25T12:58:02.674Z,4.75
2018-12-25T12:59:02.996Z,4.75
2018-12-25T13:00:03.151Z,4.75
2018-12-25T13:01:02.455Z,4.75
2018-12-25T13:02:02.743Z,4.75
2018-12-25T13:03:03.095Z,4.68
2018-12-25T13:04:02.350Z,4.68
2018-12-25T13:05:02.597Z,4.68
2018-12-25T13:06:02.919Z,4.68
2018-12-25T13:07:03.256Z,4.68
2018-12-25T13:08:02.618Z,4.68
2018-12-25T13:09:02.985Z,4.68
2018-12-25T13:10:02.302Z,4.62
2018-12-25T13:11:02.586Z,4.68
2018-12-25T13:12:02.892Z,4.68
2018-12-25T13:13:03.321Z,4.68
2018-12-25T13:14:02.614Z,4.62
2018-12-25T13:15:03.132Z,4.68
2018-12-25T13:16:02.593Z,4.68
2018-12-25T13:17:02.913Z,4.68
2018-12-25T13:18:03.238Z,4.68
2018-12-25T13:19:02.525Z,4.68
2018-12-25T13:20:02.886Z,4.68
2018-12-25T13:21:03.205Z,4.62
2018-12-25T13:22:02.518Z,4.62
2018-12-25T13:23:02.844Z,4.68
2018-12-25T13:24:03.157Z,4.62
2018-12-25T13:25:02.440Z,4.68
2018-12-25T13:26:02.843Z,4.62
2018-12-25T13:27:03.164Z,4.62
2018-12-25T13:28:02.443Z,4.62
2018-12-25T13:29:02.815Z,4.62